Time,TemperatureF,DewpointF,PressureIn,WindDirection,WindDirectionDegrees,WindSpeedMPH,WindSpeedGustMPH,Humidity,HourlyPrecipIn,Conditions,Clouds,dailyrainin,SoftwareType,DateUTC
2013-06-02 00:02:00,63.0,57.0,-100.00,NW,305,13.0,16.0,83,0.00,,,-99.99,,2013-06-02 05:02:00,
2013-06-02 00:12:00,63.0,58.0,-100.00,WNW,300,13.0,17.0,83,0.00,,,-99.99,,2013-06-02 05:12:00,
2013-06-02 00:22:00,63.0,58.0,-100.00,NW,305,12.0,20.0,84,0.00,,,-99.99,,2013-06-02 05:22:00,
2013-06-02 00:32:00,62.0,57.0,-100.00,NW,310,12.0,17.0,84,0.00,,,-99.99,,2013-06-02 05:32:00,
2013-06-02 00:42:00,62.0,57.0,-100.00,NW,310,12.0,17.0,84,0.00,,,-99.99,,2013-06-02 05:42:00,
2013-06-02 00:52:00,62.0,57.0,-100.00,NW,305,11.0,16.0,85,0.00,,,-99.99,,2013-06-02 05:52:00,
2013-06-02 01:01:00,62.0,57.0,-100.00,NW,305,11.0,16.0,85,0.00,,,-99.99,,2013-06-02 06:01:00,
2013-06-02 01:12:00,61.0,57.0,-100.00,NW,315,10.0,16.0,85,0.00,,,-99.99,,2013-06-02 06:12:00,
2013-06-02 01:21:00,61.0,57.0,-100.00,NW,315,10.0,16.0,85,0.00,,,-99.99,,2013-06-02 06:21:00,
2013-06-02 01:32:00,61.0,57.0,-100.00,NW,310,9.0,16.0,85,0.00,,,-99.99,,2013-06-02 06:32:00,
2013-06-02 01:41:00,61.0,57.0,-100.00,NW,310,9.0,16.0,85,0.00,,,-99.99,,2013-06-02 06:41:00,
2013-06-02 01:52:00,61.0,57.0,-100.00,NW,315,9.0,15.0,85,0.00,,,-99.99,,2013-06-02 06:52:00,
2013-06-02 02:01:00,61.0,57.0,-100.00,NNW,335,13.0,16.0,85,0.00,,,-99.99,,2013-06-02 07:01:00,
2013-06-02 02:11:00,61.0,57.0,-100.00,NNW,340,12.0,16.0,85,0.00,,,-99.99,,2013-06-02 07:11:00,
2013-06-02 02:21:00,61.0,57.0,-100.00,NNW,340,12.0,16.0,85,0.00,,,-99.99,,2013-06-02 07:21:00,
2013-06-02 02:32:00,61.0,57.0,-100.00,NNW,345,11.0,16.0,85,0.00,,,-99.99,,2013-06-02 07:32:00,
2013-06-02 02:42:00,61.0,57.0,-100.00,NNW,345,11.0,16.0,85,0.00,,,-99.99,,2013-06-02 07:42:00,
2013-06-02 02:52:00,61.0,56.0,-100.00,NNW,340,9.0,14.0,85,0.00,,,-99.99,,2013-06-02 07:52:00,
2013-06-02 03:01:00,60.0,56.0,-100.00,NNW,340,9.0,15.0,84,0.00,,,-99.99,,2013-06-02 08:01:00,
2013-06-02 03:11:00,60.0,56.0,-100.00,NNW,340,9.0,15.0,84,0.00,,,-99.99,,2013-06-02 08:11:00,
2013-06-02 03:21:00,60.0,55.0,-100.00,NNW,340,12.0,16.0,83,0.00,,,-99.99,,2013-06-02 08:21:00,
2013-06-02 03:31:00,60.0,54.0,-100.00,NNW,340,13.0,19.0,80,0.00,,,-99.99,,2013-06-02 08:31:00,
2013-06-02 03:41:00,60.0,53.0,-100.00,NNW,335,12.0,17.0,78,0.00,,,-99.99,,2013-06-02 08:41:00,
2013-06-02 03:52:00,60.0,53.0,-100.00,North,0,13.0,20.0,77,0.00,,,-99.99,,2013-06-02 08:52:00,
2013-06-02 04:01:00,60.0,53.0,-100.00,North,0,17.0,21.0,76,0.00,,,-99.99,,2013-06-02 09:01:00,
2013-06-02 04:11:00,60.0,53.0,-100.00,North,0,17.0,21.0,76,0.00,,,-99.99,,2013-06-02 09:11:00,
2013-06-02 04:21:00,60.0,52.0,-100.00,North,355,14.0,20.0,75,0.00,,,-99.99,,2013-06-02 09:21:00,
2013-06-02 04:33:00,60.0,52.0,-100.00,North,0,13.0,18.0,75,0.00,,,-99.99,,2013-06-02 09:33:00,
2013-06-02 04:42:00,59.0,52.0,-100.00,North,0,11.0,21.0,75,0.00,,,-99.99,,2013-06-02 09:42:00,
2013-06-02 04:53:00,59.0,51.0,-100.00,North,10,14.0,20.0,74,0.00,,,-99.99,,2013-06-02 09:53:00,
2013-06-02 05:02:00,59.0,51.0,-100.00,North,10,14.0,20.0,74,0.00,,,-99.99,,2013-06-02 10:02:00,
2013-06-02 05:12:00,59.0,51.0,-100.00,North,0,14.0,22.0,75,0.00,,,-99.99,,2013-06-02 10:12:00,
2013-06-02 05:22:00,58.0,51.0,-100.00,North,0,16.0,24.0,75,0.00,,,-99.99,,2013-06-02 10:22:00,
2013-06-02 05:32:00,58.0,50.0,-100.00,NNE,15,16.0,23.0,75,0.00,,,-99.99,,2013-06-02 10:32:00,
2013-06-02 05:42:00,58.0,50.0,-100.00,NNE,20,13.0,21.0,75,0.00,,,-99.99,,2013-06-02 10:42:00,
2013-06-02 05:52:00,57.0,49.0,-100.00,NNE,20,15.0,21.0,75,0.00,,,-99.99,,2013-06-02 10:52:00,
2013-06-02 06:02:00,57.0,49.0,-100.00,NNE,20,15.0,21.0,75,0.00,,,-99.99,,2013-06-02 11:02:00,
2013-06-02 06:12:00,57.0,50.0,-100.00,North,0,9.0,17.0,76,0.00,,,-99.99,,2013-06-02 11:12:00,
2013-06-02 06:21:00,56.0,49.0,-100.00,North,0,12.0,20.0,75,0.00,,,-99.99,,2013-06-02 11:21:00,
2013-06-02 06:32:00,56.0,49.0,-100.00,North,350,12.0,22.0,75,0.00,,,-99.99,,2013-06-02 11:32:00,
2013-06-02 06:42:00,56.0,49.0,-100.00,North,350,12.0,22.0,75,0.00,,,-99.99,,2013-06-02 11:42:00,
2013-06-02 06:52:00,56.0,49.0,-100.00,North,0,13.0,17.0,75,0.00,,,-99.99,,2013-06-02 11:52:00,
2013-06-02 07:01:00,56.0,48.0,-100.00,North,0,14.0,20.0,73,0.00,,,-99.99,,2013-06-02 12:01:00,
2013-06-02 07:11:00,56.0,48.0,-100.00,NNW,345,12.0,16.0,74,0.00,,,-99.99,,2013-06-02 12:11:00,
2013-06-02 07:21:00,56.0,48.0,-100.00,NNW,345,12.0,16.0,74,0.00,,,-99.99,,2013-06-02 12:21:00,
2013-06-02 07:32:00,56.0,48.0,-100.00,North,350,12.0,17.0,75,0.00,,,-99.99,,2013-06-02 12:32:00,
2013-06-02 07:42:00,56.0,48.0,-100.00,North,350,12.0,17.0,75,0.00,,,-99.99,,2013-06-02 12:42:00,
2013-06-02 07:52:00,56.0,48.0,-100.00,North,350,11.0,16.0,75,0.00,,,-99.99,,2013-06-02 12:52:00,
2013-06-02 08:01:00,55.0,48.0,-100.00,NNW,345,13.0,18.0,76,0.00,,,-99.99,,2013-06-02 13:01:00,
2013-06-02 08:11:00,55.0,48.0,-100.00,NNW,345,13.0,18.0,76,0.00,,,-99.99,,2013-06-02 13:11:00,
2013-06-02 08:21:00,55.0,48.0,-100.00,NNE,25,14.0,18.0,76,0.00,,,-99.99,,2013-06-02 13:21:00,
2013-06-02 08:32:00,55.0,48.0,-100.00,NNE,25,16.0,19.0,76,0.00,,,-99.99,,2013-06-02 13:32:00,
2013-06-02 08:42:00,55.0,47.0,-100.00,NNE,20,12.0,17.0,73,0.00,,,-99.99,,2013-06-02 13:42:00,
2013-06-02 08:52:00,55.0,47.0,-100.00,North,0,11.0,17.0,73,0.00,,,-99.99,,2013-06-02 13:52:00,
2013-06-02 09:01:00,55.0,47.0,-100.00,North,0,11.0,17.0,73,0.00,,,-99.99,,2013-06-02 14:01:00,
2013-06-02 09:11:00,55.0,47.0,-100.00,North,10,12.0,17.0,74,0.00,,,-99.99,,2013-06-02 14:11:00,
2013-06-02 09:21:00,55.0,47.0,-100.00,North,10,14.0,18.0,74,0.00,,,-99.99,,2013-06-02 14:21:00,
2013-06-02 09:32:00,56.0,47.0,-100.00,NNE,25,12.0,17.0,73,0.00,,,-99.99,,2013-06-02 14:32:00,
2013-06-02 09:42:00,56.0,48.0,-100.00,NNE,15,15.0,19.0,74,0.00,,,-99.99,,2013-06-02 14:42:00,
2013-06-02 09:52:00,54.0,47.0,-100.00,NNE,25,14.0,22.0,75,0.00,,,-99.99,,2013-06-02 14:52:00,
2013-06-02 10:01:00,54.0,47.0,-100.00,NNE,25,14.0,22.0,75,0.00,,,-99.99,,2013-06-02 15:01:00,
2013-06-02 10:11:00,55.0,46.0,-100.00,NE,35,13.0,21.0,72,0.00,,,-99.99,,2013-06-02 15:11:00,
2013-06-02 10:21:00,55.0,46.0,-100.00,NE,35,13.0,21.0,72,0.00,,,-99.99,,2013-06-02 15:21:00,
2013-06-02 10:32:00,58.0,44.0,-100.00,NNE,20,12.0,20.0,59,0.00,,,-99.99,,2013-06-02 15:32:00,
2013-06-02 10:43:00,58.0,44.0,-100.00,NNE,20,12.0,20.0,59,0.00,,,-99.99,,2013-06-02 15:43:00,
2013-06-02 10:53:00,58.0,40.0,-100.00,NNE,25,16.0,21.0,49,0.00,,,-99.99,,2013-06-02 15:53:00,
2013-06-02 11:03:00,58.0,40.0,-100.00,NNE,25,16.0,21.0,49,0.00,,,-99.99,,2013-06-02 16:03:00,
2013-06-02 11:13:00,59.0,39.0,-100.00,NNE,20,16.0,22.0,48,0.00,,,-99.99,,2013-06-02 16:13:00,
2013-06-02 11:23:00,60.0,43.0,-100.00,North,10,15.0,19.0,53,0.00,,,-99.99,,2013-06-02 16:23:00,
2013-06-02 11:33:00,60.0,42.0,-100.00,North,10,13.0,21.0,52,0.00,,,-99.99,,2013-06-02 16:33:00,
2013-06-02 11:42:00,60.0,42.0,-100.00,North,10,13.0,21.0,52,0.00,,,-99.99,,2013-06-02 16:42:00,
2013-06-02 11:52:00,61.0,42.0,-100.00,NNE,20,12.0,17.0,49,0.00,,,-99.99,,2013-06-02 16:52:00,
2013-06-02 12:02:00,61.0,42.0,-100.00,NNE,20,12.0,17.0,49,0.00,,,-99.99,,2013-06-02 17:02:00,
2013-06-02 12:12:00,60.0,42.0,-100.00,North,0,16.0,20.0,52,0.00,,,-99.99,,2013-06-02 17:12:00,
2013-06-02 12:23:00,59.0,42.0,-100.00,North,0,17.0,21.0,52,0.00,,,-99.99,,2013-06-02 17:23:00,
2013-06-02 12:32:00,60.0,42.0,-100.00,North,0,15.0,19.0,51,0.00,,,-99.99,,2013-06-02 17:32:00,
2013-06-02 12:42:00,60.0,42.0,-100.00,North,0,15.0,19.0,51,0.00,,,-99.99,,2013-06-02 17:42:00,
2013-06-02 12:52:00,60.0,42.0,-100.00,NNE,20,16.0,21.0,52,0.00,,,-99.99,,2013-06-02 17:52:00,
2013-06-02 13:01:00,60.0,41.0,-100.00,North,10,13.0,21.0,49,0.00,,,-99.99,,2013-06-02 18:01:00,
2013-06-02 13:11:00,60.0,41.0,-100.00,NE,55,9.0,17.0,49,0.00,,,-99.99,,2013-06-02 18:11:00,
2013-06-02 13:21:00,60.0,41.0,-100.00,NE,55,9.0,17.0,49,0.00,,,-99.99,,2013-06-02 18:21:00,
2013-06-02 13:32:00,59.0,41.0,-100.00,NNE,25,10.0,16.0,51,0.00,,,-99.99,,2013-06-02 18:32:00,
2013-06-02 13:42:00,59.0,41.0,-100.00,NNE,25,10.0,16.0,51,0.00,,,-99.99,,2013-06-02 18:42:00,
2013-06-02 13:52:00,60.0,42.0,-100.00,NNE,25,11.0,15.0,50,0.00,,,-99.99,,2013-06-02 18:52:00,
2013-06-02 14:01:00,60.0,42.0,-100.00,North,10,9.0,16.0,51,0.00,,,-99.99,,2013-06-02 19:01:00,
2013-06-02 14:11:00,60.0,42.0,-100.00,North,10,9.0,16.0,51,0.00,,,-99.99,,2013-06-02 19:11:00,
2013-06-02 14:21:00,60.0,42.0,-100.00,NNE,25,10.0,16.0,51,0.00,,,-99.99,,2013-06-02 19:21:00,
2013-06-02 14:32:00,60.0,42.0,-100.00,NNE,20,11.0,13.0,50,0.03,,,-99.99,,2013-06-02 19:32:00,
2013-06-02 14:42:00,60.0,42.0,-100.00,North,10,11.0,15.0,50,0.00,,,-99.99,,2013-06-02 19:42:00,
2013-06-02 14:52:00,60.0,41.0,-100.00,NNE,25,9.0,12.0,48,0.00,,,-99.99,,2013-06-02 19:52:00,
2013-06-02 15:02:00,60.0,41.0,-100.00,NNE,25,9.0,12.0,48,0.00,,,-99.99,,2013-06-02 20:02:00,
2013-06-02 15:11:00,61.0,41.0,-100.00,NNE,20,6.0,12.0,48,0.00,,,-99.99,,2013-06-02 20:11:00,
2013-06-02 15:21:00,61.0,41.0,-100.00,NE,35,4.0,12.0,49,0.00,,,-99.99,,2013-06-02 20:21:00,
2013-06-02 15:32:00,61.0,41.0,-100.00,North,0,4.0,11.0,48,0.00,,,-99.99,,2013-06-02 20:32:00,
2013-06-02 15:42:00,61.0,41.0,-100.00,North,0,4.0,11.0,48,0.00,,,-99.99,,2013-06-02 20:42:00,
2013-06-02 15:52:00,62.0,42.0,-100.00,ENE,65,4.0,8.0,47,0.00,,,-99.99,,2013-06-02 20:52:00,
2013-06-02 16:01:00,61.0,41.0,-100.00,NE,55,10.0,13.0,47,0.00,,,-99.99,,2013-06-02 21:01:00,
2013-06-02 16:12:00,61.0,41.0,-100.00,NE,45,7.0,11.0,47,0.00,,,-99.99,,2013-06-02 21:12:00,
2013-06-02 16:21:00,61.0,41.0,-100.00,NE,45,7.0,11.0,47,0.00,,,-99.99,,2013-06-02 21:21:00,
2013-06-02 16:33:00,62.0,41.0,-100.00,NNE,20,7.0,12.0,47,0.00,,,-99.99,,2013-06-02 21:33:00,
2013-06-02 16:42:00,62.0,41.0,-100.00,NNE,20,7.0,12.0,47,0.00,,,-99.99,,2013-06-02 21:42:00,
2013-06-02 16:53:00,62.0,42.0,-100.00,NNW,330,4.0,7.0,47,0.00,,,-99.99,,2013-06-02 21:53:00,
2013-06-02 17:03:00,62.0,41.0,-100.00,NE,45,7.0,11.0,46,0.00,,,-99.99,,2013-06-02 22:03:00,
2013-06-02 17:12:00,62.0,41.0,-100.00,NE,45,7.0,11.0,46,0.00,,,-99.99,,2013-06-02 22:12:00,
2013-06-02 17:23:00,63.0,42.0,-100.00,ENE,60,4.0,7.0,45,0.00,,,-99.99,,2013-06-02 22:23:00,
2013-06-02 17:33:00,62.0,41.0,-100.00,NE,45,4.0,10.0,45,0.00,,,-99.99,,2013-06-02 22:33:00,
2013-06-02 17:42:00,62.0,41.0,-100.00,NE,45,6.0,9.0,45,0.00,,,-99.99,,2013-06-02 22:42:00,
2013-06-02 17:53:00,62.0,40.0,-100.00,NE,40,4.0,7.0,45,0.00,,,-99.99,,2013-06-02 22:53:00,
2013-06-02 18:02:00,62.0,40.0,-100.00,NE,40,4.0,7.0,45,0.00,,,-99.99,,2013-06-02 23:02:00,
2013-06-02 18:12:00,62.0,41.0,-100.00,NNE,15,7.0,8.0,45,0.00,,,-99.99,,2013-06-02 23:12:00,
2013-06-02 18:22:00,61.0,41.0,-100.00,ENE,70,4.0,9.0,47,0.00,,,-99.99,,2013-06-02 23:22:00,
2013-06-02 18:32:00,61.0,41.0,-100.00,ESE,115,3.0,9.0,48,0.00,,,-99.99,,2013-06-02 23:32:00,
2013-06-02 18:42:00,61.0,41.0,-100.00,ESE,115,3.0,9.0,48,0.00,,,-99.99,,2013-06-02 23:42:00,
2013-06-02 18:52:00,61.0,41.0,-100.00,ESE,115,3.0,9.0,48,0.00,,,-99.99,,2013-06-02 23:52:00,
2013-06-02 19:01:00,61.0,41.0,-100.00,SE,145,3.0,6.0,47,0.00,,,-99.99,,2013-06-03 00:01:00,
2013-06-02 19:12:00,61.0,42.0,-100.00,ESE,120,4.0,6.0,48,0.00,,,-99.99,,2013-06-03 00:12:00,
2013-06-02 19:21:00,61.0,42.0,-100.00,ESE,120,4.0,6.0,48,0.00,,,-99.99,,2013-06-03 00:21:00,
2013-06-02 19:32:00,62.0,42.0,-100.00,ESE,110,4.0,7.0,48,0.00,,,-99.99,,2013-06-03 00:32:00,
2013-06-02 19:42:00,62.0,42.0,-100.00,East,95,3.0,7.0,48,0.00,,,-99.99,,2013-06-03 00:42:00,
2013-06-02 19:51:00,61.0,41.0,-100.00,ESE,110,4.0,7.0,48,0.00,,,-99.99,,2013-06-03 00:51:00,
2013-06-02 20:01:00,61.0,41.0,-100.00,ESE,110,4.0,7.0,48,0.00,,,-99.99,,2013-06-03 01:01:00,
2013-06-02 20:11:00,60.0,42.0,-100.00,ESE,110,5.0,7.0,49,0.00,,,-99.99,,2013-06-03 01:11:00,
2013-06-02 20:21:00,60.0,42.0,-100.00,ESE,115,4.0,6.0,50,0.00,,,-99.99,,2013-06-03 01:21:00,
2013-06-02 20:32:00,59.0,41.0,-100.00,ESE,115,5.0,7.0,51,0.00,,,-99.99,,2013-06-03 01:32:00,
2013-06-02 20:42:00,59.0,41.0,-100.00,ESE,115,5.0,7.0,51,0.00,,,-99.99,,2013-06-03 01:42:00,
2013-06-02 20:52:00,58.0,43.0,-100.00,ESE,120,6.0,7.0,57,0.00,,,-99.99,,2013-06-03 01:52:00,
2013-06-02 21:02:00,58.0,43.0,-100.00,ESE,120,6.0,7.0,57,0.00,,,-99.99,,2013-06-03 02:02:00,
2013-06-02 21:12:00,57.0,43.0,-100.00,SE,145,4.0,6.0,59,0.00,,,-99.99,,2013-06-03 02:12:00,
2013-06-02 21:22:00,57.0,43.0,-100.00,SSE,150,4.0,6.0,60,0.00,,,-99.99,,2013-06-03 02:22:00,
2013-06-02 21:32:00,56.0,43.0,-100.00,SSE,160,4.0,6.0,62,0.00,,,-99.99,,2013-06-03 02:32:00,
2013-06-02 21:42:00,56.0,43.0,-100.00,SSE,160,4.0,6.0,62,0.00,,,-99.99,,2013-06-03 02:42:00,
2013-06-02 21:52:00,56.0,43.0,-100.00,SSE,160,4.0,6.0,63,0.00,,,-99.99,,2013-06-03 02:52:00,
2013-06-02 22:02:00,55.0,44.0,-100.00,SSE,160,4.0,6.0,64,0.00,,,-99.99,,2013-06-03 03:02:00,
2013-06-02 22:12:00,55.0,44.0,-100.00,SSE,160,4.0,6.0,64,0.00,,,-99.99,,2013-06-03 03:12:00,
2013-06-02 22:22:00,55.0,44.0,-100.00,South,170,4.0,6.0,66,0.00,,,-99.99,,2013-06-03 03:22:00,
2013-06-02 22:33:00,54.0,44.0,-100.00,South,185,4.0,5.0,68,0.00,,,-99.99,,2013-06-03 03:33:00,
2013-06-02 22:43:00,54.0,44.0,-100.00,South,185,4.0,6.0,69,0.00,,,-99.99,,2013-06-03 03:43:00,
2013-06-02 22:53:00,54.0,44.0,-100.00,SSW,200,6.0,6.0,69,0.00,,,-99.99,,2013-06-03 03:53:00,
2013-06-02 23:03:00,54.0,44.0,-100.00,SSW,200,6.0,6.0,69,0.00,,,-99.99,,2013-06-03 04:03:00,
2013-06-02 23:13:00,54.0,44.0,-100.00,SSW,195,4.0,6.0,69,0.00,,,-99.99,,2013-06-03 04:13:00,
2013-06-02 23:23:00,54.0,44.0,-100.00,SSW,200,5.0,6.0,69,0.00,,,-99.99,,2013-06-03 04:23:00,
2013-06-02 23:33:00,54.0,44.0,-100.00,SW,215,5.0,6.0,69,0.00,,,-99.99,,2013-06-03 04:33:00,
2013-06-02 23:42:00,54.0,44.0,-100.00,SW,215,5.0,6.0,69,0.00,,,-99.99,,2013-06-03 04:42:00,
2013-06-02 23:52:00,53.0,44.0,-100.00,SW,235,2.0,4.0,70,0.00,,,-99.99,,2013-06-03 04:52:00,